sensor_id;sensor_type;location;lat;lon;timestamp;P1;durP1;ratioP1;P2;durP2;ratioP2
21254;SDS011;10785;50.674;17.954;2022-09-09T00:02:21;2.58;;;1.98;;
21254;SDS011;10785;50.674;17.954;2022-09-09T00:04:58;3.05;;;2.45;;
21254;SDS011;10785;50.674;17.954;2022-09-09T00:07:33;2.22;;;2.05;;
21254;SDS011;10785;50.674;17.954;2022-09-09T00:10:13;2.47;;;1.40;;
21254;SDS011;10785;50.674;17.954;2022-09-09T00:12:50;4.57;;;3.25;;
21254;SDS011;10785;50.674;17.954;2022-09-09T00:15:23;1.95;;;1.55;;
21254;SDS011;10785;50.674;17.954;2022-09-09T00:17:56;1.30;;;1.20;;
21254;SDS011;10785;50.674;17.954;2022-09-09T00:20:30;2.35;;;1.98;;
21254;SDS011;10785;50.674;17.954;2022-09-09T00:23:04;3.05;;;1.60;;
21254;SDS011;10785;50.674;17.954;2022-09-09T00:25:40;7.18;;;2.25;;
21254;SDS011;10785;50.674;17.954;2022-09-09T00:28:20;2.08;;;1.98;;
21254;SDS011;10785;50.674;17.954;2022-09-09T00:30:51;1.77;;;1.63;;
21254;SDS011;10785;50.674;17.954;2022-09-09T00:33:20;3.08;;;2.83;;
21254;SDS011;10785;50.674;17.954;2022-09-09T00:35:52;2.42;;;1.58;;
21254;SDS011;10785;50.674;17.954;2022-09-09T00:38:25;0.98;;;0.80;;
21254;SDS011;10785;50.674;17.954;2022-09-09T00:40:58;1.42;;;1.00;;
21254;SDS011;10785;50.674;17.954;2022-09-09T00:43:34;2.25;;;2.05;;
21254;SDS011;10785;50.674;17.954;2022-09-09T00:49:15;1.73;;;1.58;;
21254;SDS011;10785;50.674;17.954;2022-09-09T00:51:56;3.65;;;1.60;;
21254;SDS011;10785;50.674;17.954;2022-09-09T00:54:36;1.40;;;1.30;;
21254;SDS011;10785;50.674;17.954;2022-09-09T00:57:14;2.13;;;1.95;;
21254;SDS011;10785;50.674;17.954;2022-09-09T01:00:14;1.33;;;1.23;;
21254;SDS011;10785;50.674;17.954;2022-09-09T01:02:53;1.70;;;1.60;;
21254;SDS011;10785;50.674;17.954;2022-09-09T01:05:30;1.65;;;1.55;;
21254;SDS011;10785;50.674;17.954;2022-09-09T01:08:07;0.82;;;0.82;;
21254;SDS011;10785;50.674;17.954;2022-09-09T01:10:47;3.10;;;1.00;;
21254;SDS011;10785;50.674;17.954;2022-09-09T01:13:24;2.40;;;2.08;;
21254;SDS011;10785;50.674;17.954;2022-09-09T01:16:02;14.90;;;2.30;;
21254;SDS011;10785;50.674;17.954;2022-09-09T01:18:36;2.50;;;0.95;;
21254;SDS011;10785;50.674;17.954;2022-09-09T01:21:09;1.67;;;1.50;;
21254;SDS011;10785;50.674;17.954;2022-09-09T01:23:58;2.90;;;1.73;;
21254;SDS011;10785;50.674;17.954;2022-09-09T01:26:56;1.30;;;1.20;;
21254;SDS011;10785;50.674;17.954;2022-09-09T01:29:27;4.97;;;2.72;;
21254;SDS011;10785;50.674;17.954;2022-09-09T01:31:57;4.75;;;2.15;;
21254;SDS011;10785;50.674;17.954;2022-09-09T01:34:29;2.25;;;1.48;;
21254;SDS011;10785;50.674;17.954;2022-09-09T01:37:03;2.03;;;1.73;;
21254;SDS011;10785;50.674;17.954;2022-09-09T01:39:35;2.95;;;1.85;;
21254;SDS011;10785;50.674;17.954;2022-09-09T01:42:12;2.72;;;2.05;;
21254;SDS011;10785;50.674;17.954;2022-09-09T01:44:44;1.98;;;1.70;;
21254;SDS011;10785;50.674;17.954;2022-09-09T01:47:13;3.42;;;2.55;;
21254;SDS011;10785;50.674;17.954;2022-09-09T01:50:12;2.08;;;1.35;;
21254;SDS011;10785;50.674;17.954;2022-09-09T01:52:44;2.50;;;2.17;;
21254;SDS011;10785;50.674;17.954;2022-09-09T01:55:17;1.02;;;1.02;;
21254;SDS011;10785;50.674;17.954;2022-09-09T01:57:54;3.42;;;1.40;;
21254;SDS011;10785;50.674;17.954;2022-09-09T02:00:35;3.05;;;1.60;;
21254;SDS011;10785;50.674;17.954;2022-09-09T02:03:13;1.83;;;1.73;;
21254;SDS011;10785;50.674;17.954;2022-09-09T02:05:58;1.55;;;1.45;;
21254;SDS011;10785;50.674;17.954;2022-09-09T02:08:36;1.90;;;1.40;;
21254;SDS011;10785;50.674;17.954;2022-09-09T02:11:11;2.85;;;1.63;;
21254;SDS011;10785;50.674;17.954;2022-09-09T02:13:48;3.70;;;2.25;;
21254;SDS011;10785;50.674;17.954;2022-09-09T02:16:22;1.23;;;0.98;;
21254;SDS011;10785;50.674;17.954;2022-09-09T02:18:55;3.22;;;1.25;;
21254;SDS011;10785;50.674;17.954;2022-09-09T02:21:39;3.00;;;2.70;;
21254;SDS011;10785;50.674;17.954;2022-09-09T02:24:09;2.33;;;1.60;;
21254;SDS011;10785;50.674;17.954;2022-09-09T02:26:49;2.17;;;2.08;;
21254;SDS011;10785;50.674;17.954;2022-09-09T02:29:25;2.28;;;2.17;;
21254;SDS011;10785;50.674;17.954;2022-09-09T02:31:58;2.15;;;1.98;;
21254;SDS011;10785;50.674;17.954;2022-09-09T02:34:36;1.75;;;1.42;;
21254;SDS011;10785;50.674;17.954;2022-09-09T02:37:09;1.90;;;1.80;;
21254;SDS011;10785;50.674;17.954;2022-09-09T02:39:43;1.90;;;1.40;;
21254;SDS011;10785;50.674;17.954;2022-09-09T02:42:16;2.67;;;2.45;;
21254;SDS011;10785;50.674;17.954;2022-09-09T02:44:47;3.55;;;2.08;;
21254;SDS011;10785;50.674;17.954;2022-09-09T02:47:22;1.23;;;1.20;;
21254;SDS011;10785;50.674;17.954;2022-09-09T02:50:05;1.33;;;1.23;;
21254;SDS011;10785;50.674;17.954;2022-09-09T02:52:46;2.20;;;2.03;;
21254;SDS011;10785;50.674;17.954;2022-09-09T02:55:23;2.15;;;2.00;;
21254;SDS011;10785;50.674;17.954;2022-09-09T02:58:05;2.17;;;2.08;;
21254;SDS011;10785;50.674;17.954;2022-09-09T03:00:40;2.50;;;2.30;;
21254;SDS011;10785;50.674;17.954;2022-09-09T03:03:09;2.50;;;2.03;;
21254;SDS011;10785;50.674;17.954;2022-09-09T03:05:38;2.88;;;1.67;;
21254;SDS011;10785;50.674;17.954;2022-09-09T03:08:10;2.30;;;1.15;;
21254;SDS011;10785;50.674;17.954;2022-09-09T03:10:40;1.83;;;1.45;;
21254;SDS011;10785;50.674;17.954;2022-09-09T03:13:10;2.05;;;1.73;;
21254;SDS011;10785;50.674;17.954;2022-09-09T03:15:41;1.85;;;1.75;;
21254;SDS011;10785;50.674;17.954;2022-09-09T03:18:14;25.90;;;2.95;;
21254;SDS011;10785;50.674;17.954;2022-09-09T03:20:47;1.27;;;1.23;;
21254;SDS011;10785;50.674;17.954;2022-09-09T03:23:16;1.42;;;1.33;;
21254;SDS011;10785;50.674;17.954;2022-09-09T03:25:46;1.92;;;1.13;;
21254;SDS011;10785;50.674;17.954;2022-09-09T03:28:19;2.10;;;1.25;;
21254;SDS011;10785;50.674;17.954;2022-09-09T03:30:50;1.85;;;1.70;;
21254;SDS011;10785;50.674;17.954;2022-09-09T03:33:20;5.68;;;2.90;;
21254;SDS011;10785;50.674;17.954;2022-09-09T03:35:48;1.98;;;1.23;;
21254;SDS011;10785;50.674;17.954;2022-09-09T03:38:19;3.10;;;2.35;;
21254;SDS011;10785;50.674;17.954;2022-09-09T03:40:48;1.85;;;1.05;;
21254;SDS011;10785;50.674;17.954;2022-09-09T03:43:18;2.08;;;1.73;;
21254;SDS011;10785;50.674;17.954;2022-09-09T03:45:48;2.03;;;1.65;;
21254;SDS011;10785;50.674;17.954;2022-09-09T03:48:18;1.95;;;1.77;;
21254;SDS011;10785;50.674;17.954;2022-09-09T03:50:48;1.67;;;1.45;;
21254;SDS011;10785;50.674;17.954;2022-09-09T03:53:18;1.65;;;1.52;;
21254;SDS011;10785;50.674;17.954;2022-09-09T03:55:49;2.05;;;1.92;;
21254;SDS011;10785;50.674;17.954;2022-09-09T03:58:23;0.32;;;0.32;;
21254;SDS011;10785;50.674;17.954;2022-09-09T04:00:58;1.13;;;1.13;;
21254;SDS011;10785;50.674;17.954;2022-09-09T04:03:29;3.08;;;2.05;;
21254;SDS011;10785;50.674;17.954;2022-09-09T04:05:59;10.98;;;3.08;;
21254;SDS011;10785;50.674;17.954;2022-09-09T04:08:31;1.20;;;1.13;;
21254;SDS011;10785;50.674;17.954;2022-09-09T04:11:00;2.53;;;1.95;;
21254;SDS011;10785;50.674;17.954;2022-09-09T04:13:34;3.53;;;3.00;;
21254;SDS011;10785;50.674;17.954;2022-09-09T04:16:07;1.90;;;1.80;;
21254;SDS011;10785;50.674;17.954;2022-09-09T04:18:41;1.73;;;1.63;;
21254;SDS011;10785;50.674;17.954;2022-09-09T04:21:11;5.65;;;2.15;;
21254;SDS011;10785;50.674;17.954;2022-09-09T04:23:40;1.38;;;0.88;;
21254;SDS011;10785;50.674;17.954;2022-09-09T04:26:08;2.70;;;2.50;;
21254;SDS011;10785;50.674;17.954;2022-09-09T04:28:38;2.38;;;1.75;;
21254;SDS011;10785;50.674;17.954;2022-09-09T04:31:15;1.90;;;1.42;;
21254;SDS011;10785;50.674;17.954;2022-09-09T04:33:47;2.13;;;1.73;;
21254;SDS011;10785;50.674;17.954;2022-09-09T04:36:16;1.23;;;1.23;;
21254;SDS011;10785;50.674;17.954;2022-09-09T04:38:51;1.00;;;0.98;;
21254;SDS011;10785;50.674;17.954;2022-09-09T04:41:19;2.90;;;2.03;;
21254;SDS011;10785;50.674;17.954;2022-09-09T04:43:51;5.97;;;2.05;;
21254;SDS011;10785;50.674;17.954;2022-09-09T04:46:21;2.03;;;1.35;;
21254;SDS011;10785;50.674;17.954;2022-09-09T04:48:52;1.67;;;1.58;;
21254;SDS011;10785;50.674;17.954;2022-09-09T04:51:26;4.18;;;2.00;;
21254;SDS011;10785;50.674;17.954;2022-09-09T04:53:55;1.90;;;1.30;;
21254;SDS011;10785;50.674;17.954;2022-09-09T04:56:24;1.20;;;1.15;;
21254;SDS011;10785;50.674;17.954;2022-09-09T04:58:57;0.85;;;0.85;;
21254;SDS011;10785;50.674;17.954;2022-09-09T05:01:36;1.23;;;1.08;;
21254;SDS011;10785;50.674;17.954;2022-09-09T05:04:06;1.95;;;1.27;;
21254;SDS011;10785;50.674;17.954;2022-09-09T05:06:35;0.85;;;0.85;;
21254;SDS011;10785;50.674;17.954;2022-09-09T05:09:04;1.10;;;1.02;;
21254;SDS011;10785;50.674;17.954;2022-09-09T05:11:33;1.13;;;1.02;;
21254;SDS011;10785;50.674;17.954;2022-09-09T05:14:22;0.68;;;0.68;;
21254;SDS011;10785;50.674;17.954;2022-09-09T05:16:51;0.70;;;0.60;;
21254;SDS011;10785;50.674;17.954;2022-09-09T05:19:23;0.47;;;0.47;;
21254;SDS011;10785;50.674;17.954;2022-09-09T05:21:53;1.77;;;1.27;;
21254;SDS011;10785;50.674;17.954;2022-09-09T05:24:28;1.02;;;0.70;;
21254;SDS011;10785;50.674;17.954;2022-09-09T05:27:00;0.65;;;0.65;;
21254;SDS011;10785;50.674;17.954;2022-09-09T05:29:29;0.47;;;0.38;;
21254;SDS011;10785;50.674;17.954;2022-09-09T05:32:01;1.65;;;0.85;;
21254;SDS011;10785;50.674;17.954;2022-09-09T05:34:32;0.50;;;0.47;;
21254;SDS011;10785;50.674;17.954;2022-09-09T05:37:01;0.63;;;0.45;;
21254;SDS011;10785;50.674;17.954;2022-09-09T05:39:31;2.28;;;1.63;;
21254;SDS011;10785;50.674;17.954;2022-09-09T05:42:00;0.82;;;0.50;;
21254;SDS011;10785;50.674;17.954;2022-09-09T05:44:31;0.35;;;0.35;;
21254;SDS011;10785;50.674;17.954;2022-09-09T05:47:00;0.75;;;0.30;;
21254;SDS011;10785;50.674;17.954;2022-09-09T05:49:29;0.30;;;0.30;;
21254;SDS011;10785;50.674;17.954;2022-09-09T05:52:00;7.03;;;0.55;;
21254;SDS011;10785;50.674;17.954;2022-09-09T05:54:30;0.95;;;0.75;;
21254;SDS011;10785;50.674;17.954;2022-09-09T05:56:59;0.60;;;0.40;;
21254;SDS011;10785;50.674;17.954;2022-09-09T05:59:28;0.43;;;0.38;;
21254;SDS011;10785;50.674;17.954;2022-09-09T06:01:59;0.43;;;0.43;;
21254;SDS011;10785;50.674;17.954;2022-09-09T06:04:33;1.90;;;0.98;;
21254;SDS011;10785;50.674;17.954;2022-09-09T06:07:04;0.30;;;0.22;;
21254;SDS011;10785;50.674;17.954;2022-09-09T06:09:34;0.40;;;0.20;;
21254;SDS011;10785;50.674;17.954;2022-09-09T06:12:03;2.33;;;0.90;;
21254;SDS011;10785;50.674;17.954;2022-09-09T06:14:34;0.52;;;0.30;;
21254;SDS011;10785;50.674;17.954;2022-09-09T06:17:03;0.77;;;0.63;;
21254;SDS011;10785;50.674;17.954;2022-09-09T06:19:33;0.65;;;0.65;;
21254;SDS011;10785;50.674;17.954;2022-09-09T06:22:01;0.22;;;0.15;;
21254;SDS011;10785;50.674;17.954;2022-09-09T06:24:35;1.63;;;0.65;;
21254;SDS011;10785;50.674;17.954;2022-09-09T06:27:05;0.20;;;0.20;;
21254;SDS011;10785;50.674;17.954;2022-09-09T06:29:35;0.55;;;0.55;;
21254;SDS011;10785;50.674;17.954;2022-09-09T06:32:04;0.65;;;0.65;;
21254;SDS011;10785;50.674;17.954;2022-09-09T06:34:35;2.03;;;0.98;;
21254;SDS011;10785;50.674;17.954;2022-09-09T06:37:05;0.57;;;0.55;;
21254;SDS011;10785;50.674;17.954;2022-09-09T06:39:40;1.13;;;0.65;;
21254;SDS011;10785;50.674;17.954;2022-09-09T06:42:08;1.23;;;1.08;;
21254;SDS011;10785;50.674;17.954;2022-09-09T06:44:45;0.68;;;0.32;;
21254;SDS011;10785;50.674;17.954;2022-09-09T06:47:24;1.75;;;0.90;;
21254;SDS011;10785;50.674;17.954;2022-09-09T06:49:56;0.40;;;0.35;;
21254;SDS011;10785;50.674;17.954;2022-09-09T06:52:26;0.65;;;0.40;;
21254;SDS011;10785;50.674;17.954;2022-09-09T06:54:55;0.43;;;0.43;;
21254;SDS011;10785;50.674;17.954;2022-09-09T06:57:25;0.63;;;0.63;;
21254;SDS011;10785;50.674;17.954;2022-09-09T07:00:14;0.32;;;0.25;;
21254;SDS011;10785;50.674;17.954;2022-09-09T07:02:43;0.65;;;0.40;;
21254;SDS011;10785;50.674;17.954;2022-09-09T07:05:13;1.17;;;0.60;;
21254;SDS011;10785;50.674;17.954;2022-09-09T07:07:45;0.93;;;0.60;;
21254;SDS011;10785;50.674;17.954;2022-09-09T07:10:18;1.38;;;0.73;;
21254;SDS011;10785;50.674;17.954;2022-09-09T07:12:49;1.17;;;0.45;;
21254;SDS011;10785;50.674;17.954;2022-09-09T07:15:21;0.63;;;0.30;;
21254;SDS011;10785;50.674;17.954;2022-09-09T07:17:51;0.20;;;0.20;;
21254;SDS011;10785;50.674;17.954;2022-09-09T07:20:20;0.30;;;0.30;;
21254;SDS011;10785;50.674;17.954;2022-09-09T07:22:51;0.30;;;0.30;;
21254;SDS011;10785;50.674;17.954;2022-09-09T07:25:22;0.77;;;0.77;;
21254;SDS011;10785;50.674;17.954;2022-09-09T07:27:51;1.77;;;0.73;;
21254;SDS011;10785;50.674;17.954;2022-09-09T07:30:21;3.65;;;0.95;;
21254;SDS011;10785;50.674;17.954;2022-09-09T07:32:54;0.73;;;0.40;;
21254;SDS011;10785;50.674;17.954;2022-09-09T07:35:24;0.70;;;0.50;;
21254;SDS011;10785;50.674;17.954;2022-09-09T07:37:55;0.75;;;0.75;;
21254;SDS011;10785;50.674;17.954;2022-09-09T07:40:25;0.47;;;0.47;;
21254;SDS011;10785;50.674;17.954;2022-09-09T07:42:53;0.57;;;0.52;;
21254;SDS011;10785;50.674;17.954;2022-09-09T07:45:22;0.30;;;0.30;;
21254;SDS011;10785;50.674;17.954;2022-09-09T07:47:51;1.58;;;1.33;;
21254;SDS011;10785;50.674;17.954;2022-09-09T07:50:20;0.32;;;0.30;;
21254;SDS011;10785;50.674;17.954;2022-09-09T07:52:49;0.85;;;0.55;;
21254;SDS011;10785;50.674;17.954;2022-09-09T07:55:21;33.63;;;2.33;;
21254;SDS011;10785;50.674;17.954;2022-09-09T07:57:52;0.90;;;0.63;;
21254;SDS011;10785;50.674;17.954;2022-09-09T08:00:21;0.30;;;0.20;;
21254;SDS011;10785;50.674;17.954;2022-09-09T08:02:54;0.70;;;0.63;;
21254;SDS011;10785;50.674;17.954;2022-09-09T08:05:23;0.15;;;0.15;;
21254;SDS011;10785;50.674;17.954;2022-09-09T08:07:52;0.38;;;0.28;;
21254;SDS011;10785;50.674;17.954;2022-09-09T08:10:22;0.60;;;0.52;;
21254;SDS011;10785;50.674;17.954;2022-09-09T08:12:53;0.80;;;0.30;;
21254;SDS011;10785;50.674;17.954;2022-09-09T08:15:42;0.20;;;0.20;;
21254;SDS011;10785;50.674;17.954;2022-09-09T08:18:12;0.13;;;0.10;;
21254;SDS011;10785;50.674;17.954;2022-09-09T08:20:40;0.73;;;0.43;;
21254;SDS011;10785;50.674;17.954;2022-09-09T08:23:09;0.10;;;0.10;;
21254;SDS011;10785;50.674;17.954;2022-09-09T08:25:39;2.05;;;1.15;;
21254;SDS011;10785;50.674;17.954;2022-09-09T08:28:08;0.43;;;0.40;;
21254;SDS011;10785;50.674;17.954;2022-09-09T08:30:37;5.55;;;1.15;;
21254;SDS011;10785;50.674;17.954;2022-09-09T08:33:05;2.50;;;0.98;;
21254;SDS011;10785;50.674;17.954;2022-09-09T08:35:34;0.80;;;0.60;;
21254;SDS011;10785;50.674;17.954;2022-09-09T08:38:03;0.50;;;0.40;;
21254;SDS011;10785;50.674;17.954;2022-09-09T08:40:37;1.08;;;0.30;;
21254;SDS011;10785;50.674;17.954;2022-09-09T08:43:15;0.20;;;0.10;;
21254;SDS011;10785;50.674;17.954;2022-09-09T08:45:48;0.35;;;0.35;;
21254;SDS011;10785;50.674;17.954;2022-09-09T08:48:30;0.20;;;0.20;;
21254;SDS011;10785;50.674;17.954;2022-09-09T08:51:10;0.10;;;0.10;;
21254;SDS011;10785;50.674;17.954;2022-09-09T08:53:41;0.88;;;0.80;;
21254;SDS011;10785;50.674;17.954;2022-09-09T08:56:16;0.13;;;0.13;;
21254;SDS011;10785;50.674;17.954;2022-09-09T08:58:52;3.50;;;0.85;;
21254;SDS011;10785;50.674;17.954;2022-09-09T09:01:36;0.43;;;0.40;;
21254;SDS011;10785;50.674;17.954;2022-09-09T09:04:22;0.38;;;0.30;;
21254;SDS011;10785;50.674;17.954;2022-09-09T09:07:04;0.30;;;0.30;;
21254;SDS011;10785;50.674;17.954;2022-09-09T09:09:42;0.40;;;0.25;;
21254;SDS011;10785;50.674;17.954;2022-09-09T09:12:20;0.13;;;0.13;;
21254;SDS011;10785;50.674;17.954;2022-09-09T09:14:51;0.57;;;0.57;;
21254;SDS011;10785;50.674;17.954;2022-09-09T09:17:23;0.95;;;0.20;;
21254;SDS011;10785;50.674;17.954;2022-09-09T09:19:55;0.32;;;0.32;;
21254;SDS011;10785;50.674;17.954;2022-09-09T09:22:26;0.20;;;0.20;;
21254;SDS011;10785;50.674;17.954;2022-09-09T09:25:05;0.25;;;0.25;;
21254;SDS011;10785;50.674;17.954;2022-09-09T09:27:47;0.55;;;0.20;;
21254;SDS011;10785;50.674;17.954;2022-09-09T09:30:26;0.50;;;0.30;;
21254;SDS011;10785;50.674;17.954;2022-09-09T09:33:05;0.20;;;0.20;;
21254;SDS011;10785;50.674;17.954;2022-09-09T09:35:40;4.88;;;1.33;;
21254;SDS011;10785;50.674;17.954;2022-09-09T09:38:16;0.57;;;0.47;;
21254;SDS011;10785;50.674;17.954;2022-09-09T09:41:07;0.20;;;0.20;;
21254;SDS011;10785;50.674;17.954;2022-09-09T09:43:39;0.00;;;0.00;;
21254;SDS011;10785;50.674;17.954;2022-09-09T09:46:19;0.73;;;0.50;;
21254;SDS011;10785;50.674;17.954;2022-09-09T09:48:58;0.60;;;0.50;;
21254;SDS011;10785;50.674;17.954;2022-09-09T09:51:29;0.55;;;0.35;;
21254;SDS011;10785;50.674;17.954;2022-09-09T09:54:13;0.25;;;0.25;;
21254;SDS011;10785;50.674;17.954;2022-09-09T09:56:52;0.47;;;0.30;;
21254;SDS011;10785;50.674;17.954;2022-09-09T09:59:23;0.52;;;0.38;;
21254;SDS011;10785;50.674;17.954;2022-09-09T10:02:26;0.47;;;0.47;;
21254;SDS011;10785;50.674;17.954;2022-09-09T10:05:12;0.22;;;0.22;;
21254;SDS011;10785;50.674;17.954;2022-09-09T10:08:02;0.30;;;0.30;;
21254;SDS011;10785;50.674;17.954;2022-09-09T10:10:36;0.10;;;0.10;;
21254;SDS011;10785;50.674;17.954;2022-09-09T10:13:15;0.13;;;0.00;;
21254;SDS011;10785;50.674;17.954;2022-09-09T10:15:55;0.70;;;0.47;;
21254;SDS011;10785;50.674;17.954;2022-09-09T10:18:38;0.88;;;0.50;;
21254;SDS011;10785;50.674;17.954;2022-09-09T10:21:17;2.83;;;0.40;;
21254;SDS011;10785;50.674;17.954;2022-09-09T10:24:04;1.45;;;0.70;;
21254;SDS011;10785;50.674;17.954;2022-09-09T10:26:43;10.30;;;1.50;;
21254;SDS011;10785;50.674;17.954;2022-09-09T10:29:23;0.20;;;0.20;;
21254;SDS011;10785;50.674;17.954;2022-09-09T10:32:09;0.20;;;0.20;;
21254;SDS011;10785;50.674;17.954;2022-09-09T10:34:55;0.35;;;0.20;;
21254;SDS011;10785;50.674;17.954;2022-09-09T10:37:31;0.75;;;0.30;;
21254;SDS011;10785;50.674;17.954;2022-09-09T10:40:21;0.17;;;0.17;;
21254;SDS011;10785;50.674;17.954;2022-09-09T10:42:59;0.10;;;0.10;;
21254;SDS011;10785;50.674;17.954;2022-09-09T10:45:34;0.38;;;0.30;;
21254;SDS011;10785;50.674;17.954;2022-09-09T10:48:16;0.40;;;0.30;;
21254;SDS011;10785;50.674;17.954;2022-09-09T10:51:01;0.22;;;0.22;;
21254;SDS011;10785;50.674;17.954;2022-09-09T10:53:44;0.20;;;0.20;;
21254;SDS011;10785;50.674;17.954;2022-09-09T10:56:20;0.15;;;0.10;;
21254;SDS011;10785;50.674;17.954;2022-09-09T10:58:52;0.40;;;0.40;;
21254;SDS011;10785;50.674;17.954;2022-09-09T11:01:25;0.40;;;0.40;;
21254;SDS011;10785;50.674;17.954;2022-09-09T11:04:01;0.43;;;0.28;;
21254;SDS011;10785;50.674;17.954;2022-09-09T11:06:39;0.25;;;0.03;;
21254;SDS011;10785;50.674;17.954;2022-09-09T11:09:11;1.20;;;0.43;;
21254;SDS011;10785;50.674;17.954;2022-09-09T11:11:44;0.10;;;0.00;;
21254;SDS011;10785;50.674;17.954;2022-09-09T11:14:19;0.25;;;0.25;;
21254;SDS011;10785;50.674;17.954;2022-09-09T11:16:56;0.55;;;0.45;;
21254;SDS011;10785;50.674;17.954;2022-09-09T11:19:30;0.22;;;0.22;;
21254;SDS011;10785;50.674;17.954;2022-09-09T11:22:03;0.20;;;0.10;;
21254;SDS011;10785;50.674;17.954;2022-09-09T11:24:41;0.10;;;0.10;;
21254;SDS011;10785;50.674;17.954;2022-09-09T11:27:15;0.43;;;0.30;;
21254;SDS011;10785;50.674;17.954;2022-09-09T11:30:02;0.00;;;0.00;;
21254;SDS011;10785;50.674;17.954;2022-09-09T11:36:22;0.05;;;0.05;;
21254;SDS011;10785;50.674;17.954;2022-09-09T11:39:07;0.35;;;0.30;;
21254;SDS011;10785;50.674;17.954;2022-09-09T11:41:51;0.30;;;0.30;;
21254;SDS011;10785;50.674;17.954;2022-09-09T11:44:23;0.08;;;0.08;;
21254;SDS011;10785;50.674;17.954;2022-09-09T11:46:56;0.00;;;0.00;;
21254;SDS011;10785;50.674;17.954;2022-09-09T11:49:28;0.10;;;0.10;;
21254;SDS011;10785;50.674;17.954;2022-09-09T11:52:12;0.10;;;0.08;;
21254;SDS011;10785;50.674;17.954;2022-09-09T11:54:48;0.10;;;0.10;;
21254;SDS011;10785;50.674;17.954;2022-09-09T11:57:23;0.10;;;0.00;;
21254;SDS011;10785;50.674;17.954;2022-09-09T11:59:55;0.03;;;0.00;;
21254;SDS011;10785;50.674;17.954;2022-09-09T12:02:25;0.00;;;0.00;;
21254;SDS011;10785;50.674;17.954;2022-09-09T12:04:58;0.20;;;0.20;;
21254;SDS011;10785;50.674;17.954;2022-09-09T12:07:34;0.43;;;0.28;;
21254;SDS011;10785;50.674;17.954;2022-09-09T12:10:20;0.80;;;0.80;;
21254;SDS011;10785;50.674;17.954;2022-09-09T12:12:53;0.10;;;0.08;;
21254;SDS011;10785;50.674;17.954;2022-09-09T12:15:24;0.00;;;0.00;;
21254;SDS011;10785;50.674;17.954;2022-09-09T12:17:56;0.10;;;0.10;;
21254;SDS011;10785;50.674;17.954;2022-09-09T12:20:33;0.10;;;0.10;;
21254;SDS011;10785;50.674;17.954;2022-09-09T12:23:10;0.30;;;0.28;;
21254;SDS011;10785;50.674;17.954;2022-09-09T12:25:57;1.23;;;0.60;;
21254;SDS011;10785;50.674;17.954;2022-09-09T12:28:39;0.43;;;0.35;;
21254;SDS011;10785;50.674;17.954;2022-09-09T12:31:15;1.20;;;0.45;;
21254;SDS011;10785;50.674;17.954;2022-09-09T12:33:49;0.20;;;0.20;;
21254;SDS011;10785;50.674;17.954;2022-09-09T12:36:20;0.00;;;0.00;;
21254;SDS011;10785;50.674;17.954;2022-09-09T12:38:53;7.15;;;0.50;;
21254;SDS011;10785;50.674;17.954;2022-09-09T12:41:24;0.00;;;0.00;;
21254;SDS011;10785;50.674;17.954;2022-09-09T12:44:02;0.80;;;0.65;;
21254;SDS011;10785;50.674;17.954;2022-09-09T12:46:35;0.22;;;0.20;;
21254;SDS011;10785;50.674;17.954;2022-09-09T12:49:18;0.25;;;0.25;;
21254;SDS011;10785;50.674;17.954;2022-09-09T12:51:54;0.08;;;0.08;;
21254;SDS011;10785;50.674;17.954;2022-09-09T12:54:25;0.20;;;0.20;;
21254;SDS011;10785;50.674;17.954;2022-09-09T12:56:54;0.03;;;0.03;;
21254;SDS011;10785;50.674;17.954;2022-09-09T12:59:24;17.42;;;1.85;;
21254;SDS011;10785;50.674;17.954;2022-09-09T13:01:57;0.00;;;0.00;;
21254;SDS011;10785;50.674;17.954;2022-09-09T13:04:26;0.25;;;0.25;;
21254;SDS011;10785;50.674;17.954;2022-09-09T13:07:05;0.10;;;0.10;;
21254;SDS011;10785;50.674;17.954;2022-09-09T13:09:38;0.30;;;0.30;;
21254;SDS011;10785;50.674;17.954;2022-09-09T13:12:07;0.75;;;0.30;;
21254;SDS011;10785;50.674;17.954;2022-09-09T13:14:42;0.50;;;0.50;;
21254;SDS011;10785;50.674;17.954;2022-09-09T13:17:17;0.45;;;0.45;;
21254;SDS011;10785;50.674;17.954;2022-09-09T13:19:48;0.30;;;0.30;;
21254;SDS011;10785;50.674;17.954;2022-09-09T13:22:20;0.40;;;0.40;;
21254;SDS011;10785;50.674;17.954;2022-09-09T13:24:59;0.00;;;0.00;;
21254;SDS011;10785;50.674;17.954;2022-09-09T13:27:31;0.68;;;0.43;;
21254;SDS011;10785;50.674;17.954;2022-09-09T13:30:01;0.20;;;0.20;;
21254;SDS011;10785;50.674;17.954;2022-09-09T13:32:45;0.88;;;0.43;;
21254;SDS011;10785;50.674;17.954;2022-09-09T13:35:22;0.03;;;0.03;;
21254;SDS011;10785;50.674;17.954;2022-09-09T13:37:52;3.33;;;0.85;;
21254;SDS011;10785;50.674;17.954;2022-09-09T13:40:22;0.80;;;0.75;;
21254;SDS011;10785;50.674;17.954;2022-09-09T13:42:51;0.10;;;0.10;;
21254;SDS011;10785;50.674;17.954;2022-09-09T13:45:24;0.00;;;0.00;;
21254;SDS011;10785;50.674;17.954;2022-09-09T13:47:54;0.50;;;0.50;;
21254;SDS011;10785;50.674;17.954;2022-09-09T13:50:24;0.45;;;0.45;;
21254;SDS011;10785;50.674;17.954;2022-09-09T13:52:54;0.52;;;0.40;;
21254;SDS011;10785;50.674;17.954;2022-09-09T13:55:26;3.80;;;1.40;;
21254;SDS011;10785;50.674;17.954;2022-09-09T13:57:58;0.10;;;0.10;;
21254;SDS011;10785;50.674;17.954;2022-09-09T14:00:28;0.50;;;0.50;;
21254;SDS011;10785;50.674;17.954;2022-09-09T14:02:58;0.28;;;0.28;;
21254;SDS011;10785;50.674;17.954;2022-09-09T14:05:29;26.45;;;2.38;;
21254;SDS011;10785;50.674;17.954;2022-09-09T14:08:00;6.78;;;0.43;;
21254;SDS011;10785;50.674;17.954;2022-09-09T14:10:32;0.22;;;0.22;;
21254;SDS011;10785;50.674;17.954;2022-09-09T14:13:02;6.82;;;3.55;;
21254;SDS011;10785;50.674;17.954;2022-09-09T14:15:31;0.40;;;0.40;;
21254;SDS011;10785;50.674;17.954;2022-09-09T14:17:59;1.25;;;0.80;;
21254;SDS011;10785;50.674;17.954;2022-09-09T14:20:30;0.98;;;0.80;;
21254;SDS011;10785;50.674;17.954;2022-09-09T14:22:59;0.47;;;0.28;;
21254;SDS011;10785;50.674;17.954;2022-09-09T14:25:29;2.78;;;1.05;;
21254;SDS011;10785;50.674;17.954;2022-09-09T14:27:59;1.05;;;0.30;;
21254;SDS011;10785;50.674;17.954;2022-09-09T14:30:28;0.50;;;0.10;;
21254;SDS011;10785;50.674;17.954;2022-09-09T14:32:57;1.17;;;0.50;;
21254;SDS011;10785;50.674;17.954;2022-09-09T14:35:27;0.38;;;0.30;;
21254;SDS011;10785;50.674;17.954;2022-09-09T14:37:55;0.30;;;0.30;;
21254;SDS011;10785;50.674;17.954;2022-09-09T14:40:24;0.40;;;0.40;;
21254;SDS011;10785;50.674;17.954;2022-09-09T14:42:52;0.30;;;0.10;;
21254;SDS011;10785;50.674;17.954;2022-09-09T14:45:24;0.40;;;0.40;;
21254;SDS011;10785;50.674;17.954;2022-09-09T14:47:52;0.47;;;0.45;;
21254;SDS011;10785;50.674;17.954;2022-09-09T14:50:22;0.30;;;0.30;;
21254;SDS011;10785;50.674;17.954;2022-09-09T14:52:51;0.47;;;0.28;;
21254;SDS011;10785;50.674;17.954;2022-09-09T14:55:19;0.15;;;0.15;;
21254;SDS011;10785;50.674;17.954;2022-09-09T14:57:48;0.60;;;0.57;;
21254;SDS011;10785;50.674;17.954;2022-09-09T15:00:16;0.25;;;0.10;;
21254;SDS011;10785;50.674;17.954;2022-09-09T15:02:47;0.10;;;0.10;;
21254;SDS011;10785;50.674;17.954;2022-09-09T15:05:16;0.22;;;0.22;;
21254;SDS011;10785;50.674;17.954;2022-09-09T15:07:45;0.10;;;0.10;;
21254;SDS011;10785;50.674;17.954;2022-09-09T15:10:15;0.60;;;0.60;;
21254;SDS011;10785;50.674;17.954;2022-09-09T15:12:43;0.90;;;0.73;;
21254;SDS011;10785;50.674;17.954;2022-09-09T15:15:12;0.52;;;0.43;;
21254;SDS011;10785;50.674;17.954;2022-09-09T15:17:40;0.20;;;0.20;;
21254;SDS011;10785;50.674;17.954;2022-09-09T15:20:10;2.28;;;0.57;;